Time;durP1;ratioP1;P1;durP2;ratioP2;P2;SDS_P1;SDS_P2;PMS_P1;PMS_P2;Temp;Humidity;BMP_temperature;BMP_pressure;BME280_temperature;BME280_humidity;BME280_pressure;Samples;Min_cycle;Max_cycle;Signal;HPM_P1;HPM_P2
2022/02/26 00:01:06;;;;;;;;;;;22.20;43.60;;;;;;5156870;27;20435;-42
2022/02/26 00:03:34;;;;;;;;;;;22.20;43.60;;;;;;5139824;27;19930;-44
2022/02/26 00:06:02;;;;;;;;;;;22.20;43.60;;;;;;5157979;27;19934;-42
2022/02/26 00:08:29;;;;;;;;;;;22.20;43.60;;;;;;5157502;27;20345;-42
2022/02/26 00:10:56;;;;;;;;;;;22.20;43.60;;;;;;5157802;27;19984;-46
2022/02/26 00:13:22;;;;;;;;;;;22.20;43.60;;;;;;5157816;27;20435;-42
2022/02/26 00:15:49;;;;;;;;;;;22.20;43.60;;;;;;5156878;27;19923;-43
2022/02/26 00:18:17;;;;;;;;;;;22.20;43.60;;;;;;5157448;27;19975;-43
2022/02/26 00:20:44;;;;;;;;;;;22.20;43.60;;;;;;5139724;27;20332;-42
2022/02/26 00:23:11;;;;;;;;;;;22.20;43.60;;;;;;5156716;27;20271;-44
2022/02/26 00:25:40;;;;;;;;;;;22.20;43.60;;;;;;5157629;27;19999;-45
2022/02/26 00:28:07;;;;;;;;;;;22.20;43.60;;;;;;5157898;27;19975;-49
2022/02/26 00:30:34;;;;;;;;;;;22.20;43.60;;;;;;5137121;27;20370;-45
2022/02/26 00:33:01;;;;;;;;;;;22.20;43.60;;;;;;5157467;27;19923;-45
2022/02/26 00:35:29;;;;;;;;;;;22.20;43.60;;;;;;5157422;27;19923;-43
2022/02/26 00:37:57;;;;;;;;;;;22.20;43.60;;;;;;5138309;27;19970;-48
2022/02/26 00:40:24;;;;;;;;;;;22.20;43.60;;;;;;5157667;27;19930;-43
2022/02/26 00:42:52;;;;;;;;;;;22.20;43.60;;;;;;5157588;27;19927;-43
2022/02/26 00:45:19;;;;;;;;;;;22.20;43.60;;;;;;5157259;27;19923;-43
2022/02/26 00:47:48;;;;;;;;;;;22.20;43.60;;;;;;5156019;27;19968;-44
2022/02/26 00:50:15;;;;;;;;;;;22.20;43.60;;;;;;5156890;27;19923;-44
2022/02/26 00:52:42;;;;;;;;;;;22.20;43.70;;;;;;5138547;27;20390;-45
2022/02/26 00:55:10;;;;;;;;;;;22.20;43.70;;;;;;5156543;27;19923;-43
2022/02/26 00:57:37;;;;;;;;;;;22.20;43.60;;;;;;5157284;27;19975;-46
2022/02/26 01:00:06;;;;;;;;;;;22.20;43.70;;;;;;5157220;27;19949;-43
2022/02/26 01:02:33;;;;;;;;;;;22.20;43.70;;;;;;5155748;27;19923;-42
2022/02/26 01:05:01;;;;;;;;;;;22.20;43.70;;;;;;5157148;27;19923;-45
2022/02/26 01:07:27;;;;;;;;;;;22.20;43.70;;;;;;5156776;27;20022;-46
2022/02/26 01:09:55;;;;;;;;;;;22.20;43.70;;;;;;5155886;27;20386;-45
2022/02/26 01:12:22;;;;;;;;;;;22.20;43.70;;;;;;5156678;27;19927;-48
2022/02/26 01:14:49;;;;;;;;;;;22.20;43.70;;;;;;5156625;27;19923;-42
2022/02/26 01:17:17;;;;;;;;;;;22.10;43.60;;;;;;5155544;27;19927;-47
2022/02/26 01:19:44;;;;;;;;;;;22.20;43.70;;;;;;5156238;27;19930;-52
2022/02/26 01:22:11;;;;;;;;;;;22.10;43.60;;;;;;5156919;27;19945;-47
2022/02/26 01:24:38;;;;;;;;;;;22.10;43.60;;;;;;5155703;27;20347;-52
2022/02/26 01:27:05;;;;;;;;;;;22.10;43.60;;;;;;5156373;27;19923;-49
2022/02/26 01:29:33;;;;;;;;;;;22.10;43.60;;;;;;5156650;27;19927;-49
2022/02/26 01:32:00;;;;;;;;;;;22.10;43.60;;;;;;5136821;27;20397;-48
2022/02/26 01:34:33;;;;;;;;;;;22.10;43.60;;;;;;5156439;27;19927;-48
2022/02/26 01:37:02;;;;;;;;;;;22.10;43.60;;;;;;5156186;27;19923;-45
2022/02/26 01:39:29;;;;;;;;;;;22.20;43.70;;;;;;5155740;27;19923;-48
2022/02/26 01:41:57;;;;;;;;;;;22.10;43.70;;;;;;5156114;27;19930;-46
2022/02/26 01:44:24;;;;;;;;;;;22.10;43.60;;;;;;5156078;27;19923;-46
2022/02/26 01:46:52;;;;;;;;;;;22.10;43.60;;;;;;5155144;27;19923;-45
2022/02/26 01:49:19;;;;;;;;;;;22.10;43.70;;;;;;5156180;27;19930;-48
2022/02/26 01:51:46;;;;;;;;;;;22.10;43.70;;;;;;5155982;27;19930;-46
2022/02/26 01:54:13;;;;;;;;;;;22.10;43.60;;;;;;5155133;27;20386;-46
2022/02/26 01:56:41;;;;;;;;;;;22.10;43.70;;;;;;5156186;27;19930;-43
2022/02/26 01:59:08;;;;;;;;;;;22.10;43.70;;;;;;5137486;27;19974;-44
2022/02/26 02:01:35;;;;;;;;;;;22.10;43.70;;;;;;5154994;27;19931;-46
2022/02/26 02:04:02;;;;;;;;;;;22.10;43.70;;;;;;5155678;27;19966;-44
2022/02/26 02:06:29;;;;;;;;;;;22.10;43.70;;;;;;5155686;27;20017;-45
2022/02/26 02:08:56;;;;;;;;;;;22.10;43.70;;;;;;5136934;27;19963;-44
2022/02/26 02:11:23;;;;;;;;;;;22.10;43.70;;;;;;5155505;27;19923;-43
2022/02/26 02:13:51;;;;;;;;;;;22.10;43.70;;;;;;5155890;27;19928;-44
2022/02/26 02:16:18;;;;;;;;;;;22.10;43.70;;;;;;5155861;27;19984;-44
2022/02/26 02:18:45;;;;;;;;;;;22.10;43.70;;;;;;5154111;27;19974;-44
2022/02/26 02:21:13;;;;;;;;;;;22.10;43.70;;;;;;5155682;27;19959;-44
2022/02/26 02:23:41;;;;;;;;;;;22.10;43.70;;;;;;5155724;27;19923;-43
2022/02/26 02:26:10;;;;;;;;;;;22.10;43.70;;;;;;5154275;27;21335;-42
2022/02/26 02:28:38;;;;;;;;;;;22.10;43.70;;;;;;5155354;27;20390;-44
2022/02/26 02:31:06;;;;;;;;;;;22.10;43.70;;;;;;5155228;27;20440;-43
2022/02/26 02:33:44;;;;;;;;;;;22.10;43.70;;;;;;5154473;27;20358;-42
2022/02/26 02:36:11;;;;;;;;;;;22.10;43.70;;;;;;5155282;27;19962;-43
2022/02/26 02:38:39;;;;;;;;;;;22.10;43.70;;;;;;5155226;27;19973;-44
2022/02/26 02:41:06;;;;;;;;;;;22.10;43.70;;;;;;5154471;27;20423;-43
2022/02/26 02:43:33;;;;;;;;;;;22.10;43.70;;;;;;5136888;27;19927;-44
2022/02/26 02:46:00;;;;;;;;;;;22.10;43.70;;;;;;5155150;27;19974;-43
2022/02/26 02:48:27;;;;;;;;;;;22.10;43.70;;;;;;5153891;27;19927;-43
2022/02/26 02:50:54;;;;;;;;;;;22.10;43.70;;;;;;5155352;27;19923;-43
2022/02/26 02:53:22;;;;;;;;;;;22.10;43.70;;;;;;5156587;27;20393;-43
2022/02/26 02:55:50;;;;;;;;;;;22.10;43.70;;;;;;5158601;27;19923;-43
2022/02/26 02:58:21;;;;;;;;;;;22.00;43.70;;;;;;5159359;27;20445;-45
2022/02/26 03:00:49;;;;;;;;;;;22.10;43.80;;;;;;5159312;27;19977;-45
2022/02/26 03:03:17;;;;;;;;;;;22.10;43.70;;;;;;5158049;27;19930;-43
2022/02/26 03:05:45;;;;;;;;;;;22.00;43.70;;;;;;5160356;27;19923;-44
2022/02/26 03:08:12;;;;;;;;;;;22.10;43.70;;;;;;5159501;27;20022;-43
2022/02/26 03:10:39;;;;;;;;;;;22.00;43.70;;;;;;5158662;27;20447;-44
2022/02/26 03:13:06;;;;;;;;;;;22.00;43.70;;;;;;5159382;27;19931;-43
2022/02/26 03:15:33;;;;;;;;;;;22.00;43.70;;;;;;5159362;27;20400;-43
2022/02/26 03:18:00;;;;;;;;;;;22.00;43.70;;;;;;5158021;27;20371;-44
2022/02/26 03:20:29;;;;;;;;;;;22.00;43.70;;;;;;5158766;27;19930;-44
2022/02/26 03:22:56;;;;;;;;;;;22.00;43.70;;;;;;5158679;27;19953;-42
2022/02/26 03:25:24;;;;;;;;;;;22.00;43.70;;;;;;5158321;27;20068;-44
2022/02/26 03:27:51;;;;;;;;;;;22.00;43.70;;;;;;5158739;27;19968;-45
2022/02/26 03:30:19;;;;;;;;;;;22.00;43.70;;;;;;5158722;27;20367;-44
2022/02/26 03:32:46;;;;;;;;;;;22.00;43.70;;;;;;5157728;27;19923;-43
2022/02/26 03:35:13;;;;;;;;;;;22.00;43.70;;;;;;5158612;27;19968;-44
2022/02/26 03:37:40;;;;;;;;;;;22.00;43.70;;;;;;5159440;27;19923;-43
2022/02/26 03:40:09;;;;;;;;;;;22.00;43.70;;;;;;5158088;27;19968;-42
2022/02/26 03:42:36;;;;;;;;;;;22.00;43.80;;;;;;5158789;27;19923;-42
2022/02/26 03:45:05;;;;;;;;;;;22.00;43.70;;;;;;5158465;27;19988;-42
2022/02/26 03:47:32;;;;;;;;;;;22.00;43.70;;;;;;5157297;27;19975;-44
2022/02/26 03:49:59;;;;;;;;;;;22.00;43.70;;;;;;5158255;27;19972;-43
2022/02/26 03:52:32;;;;;;;;;;;22.00;43.70;;;;;;5158921;27;19927;-42
2022/02/26 03:55:02;;;;;;;;;;;22.00;43.70;;;;;;5158234;27;19948;-43
2022/02/26 03:57:30;;;;;;;;;;;22.00;43.70;;;;;;5158302;27;19948;-43
2022/02/26 03:59:57;;;;;;;;;;;22.00;43.70;;;;;;5139803;27;19962;-44
2022/02/26 04:02:24;;;;;;;;;;;22.00;43.70;;;;;;5158413;27;19938;-45
2022/02/26 04:04:52;;;;;;;;;;;22.00;43.70;;;;;;5155723;27;19923;-43
2022/02/26 04:07:18;;;;;;;;;;;22.00;43.70;;;;;;5158301;27;19927;-42
2022/02/26 04:09:46;;;;;;;;;;;22.00;43.70;;;;;;5158311;27;19923;-43
2022/02/26 04:12:13;;;;;;;;;;;22.00;43.70;;;;;;5140096;27;20264;-44
2022/02/26 04:14:40;;;;;;;;;;;22.00;43.70;;;;;;5137458;27;19924;-44
2022/02/26 04:17:07;;;;;;;;;;;22.00;43.80;;;;;;5137385;27;20348;-42
2022/02/26 04:22:27;;;;;;;;;;;22.00;43.80;;;;;;5157862;27;19967;-45
2022/02/26 04:24:54;;;;;;;;;;;22.00;43.80;;;;;;5157701;27;19927;-44
2022/02/26 04:27:21;;;;;;;;;;;22.00;43.80;;;;;;5138836;27;19923;-49
2022/02/26 04:29:49;;;;;;;;;;;22.00;43.70;;;;;;5157614;27;20370;-43
2022/02/26 04:32:36;;;;;;;;;;;22.00;44.40;;;;;;5157659;27;20400;-43
2022/02/26 04:35:04;;;;;;;;;;;22.00;43.80;;;;;;5156291;27;19948;-50
2022/02/26 04:37:31;;;;;;;;;;;22.00;43.80;;;;;;5157392;27;19923;-44
2022/02/26 04:39:59;;;;;;;;;;;22.00;43.80;;;;;;5157682;27;19923;-46
2022/02/26 04:42:26;;;;;;;;;;;22.00;43.80;;;;;;5156568;27;20450;-45
2022/02/26 04:44:53;;;;;;;;;;;22.00;43.80;;;;;;5157273;27;19966;-46
2022/02/26 04:47:20;;;;;;;;;;;22.00;43.80;;;;;;5157562;27;19923;-47
2022/02/26 04:49:47;;;;;;;;;;;22.00;43.80;;;;;;5155842;27;19983;-43
2022/02/26 04:52:14;;;;;;;;;;;22.00;43.80;;;;;;5156877;27;20347;-48
2022/02/26 04:54:41;;;;;;;;;;;22.00;43.80;;;;;;5157364;27;19923;-48
2022/02/26 04:57:08;;;;;;;;;;;22.00;43.80;;;;;;5156280;27;19923;-44
2022/02/26 04:59:35;;;;;;;;;;;22.00;43.80;;;;;;5156957;27;19948;-45
2022/02/26 05:02:02;;;;;;;;;;;22.00;43.80;;;;;;5157235;27;19923;-45
2022/02/26 05:04:29;;;;;;;;;;;21.90;43.70;;;;;;5156010;27;19984;-50
2022/02/26 05:07:00;;;;;;;;;;;22.00;43.80;;;;;;5156855;27;19923;-44
2022/02/26 05:09:28;;;;;;;;;;;22.00;43.80;;;;;;5157128;27;19923;-44
2022/02/26 05:11:55;;;;;;;;;;;22.00;43.80;;;;;;5156230;27;19927;-43
2022/02/26 05:14:22;;;;;;;;;;;22.00;43.90;;;;;;5156686;27;20009;-48
2022/02/26 05:16:49;;;;;;;;;;;22.00;43.80;;;;;;5156655;27;19984;-43
2022/02/26 05:19:16;;;;;;;;;;;22.00;43.80;;;;;;5155184;27;20394;-42
2022/02/26 05:21:43;;;;;;;;;;;21.90;43.70;;;;;;5156368;27;19962;-43
2022/02/26 05:24:10;;;;;;;;;;;22.00;43.80;;;;;;5156831;27;20327;-44
2022/02/26 05:26:37;;;;;;;;;;;21.90;43.70;;;;;;5156007;27;20356;-42
2022/02/26 05:29:05;;;;;;;;;;;21.90;43.70;;;;;;5156380;27;19930;-43
2022/02/26 05:31:32;;;;;;;;;;;22.00;43.80;;;;;;5138240;27;19930;-42
2022/02/26 05:34:00;;;;;;;;;;;21.90;43.70;;;;;;5155510;27;19929;-45
2022/02/26 05:36:27;;;;;;;;;;;21.90;43.70;;;;;;5156597;27;19923;-42
2022/02/26 05:38:54;;;;;;;;;;;21.90;43.70;;;;;;5156240;27;19923;-44
2022/02/26 05:41:21;;;;;;;;;;;21.90;43.70;;;;;;5137096;27;19927;-45
2022/02/26 05:43:48;;;;;;;;;;;21.90;43.70;;;;;;5156451;27;20014;-43
2022/02/26 05:46:15;;;;;;;;;;;21.90;43.70;;;;;;5138129;27;19934;-43
2022/02/26 05:48:42;;;;;;;;;;;22.00;43.90;;;;;;5137198;27;19923;-43
2022/02/26 05:51:12;;;;;;;;;;;21.90;43.70;;;;;;5155584;27;19971;-44
2022/02/26 05:53:39;;;;;;;;;;;21.90;43.70;;;;;;5156240;27;19923;-44
2022/02/26 05:56:06;;;;;;;;;;;21.90;43.70;;;;;;5156194;27;19970;-42
2022/02/26 05:58:33;;;;;;;;;;;21.90;43.80;;;;;;5155066;27;19968;-43
2022/02/26 06:01:00;;;;;;;;;;;21.90;43.80;;;;;;5156093;27;19962;-44
2022/02/26 06:03:27;;;;;;;;;;;21.90;43.80;;;;;;5156060;27;19963;-45
2022/02/26 06:05:54;;;;;;;;;;;21.90;43.80;;;;;;5154938;27;19962;-45
2022/02/26 06:08:22;;;;;;;;;;;21.90;43.80;;;;;;5155731;27;19963;-44
2022/02/26 06:10:49;;;;;;;;;;;21.90;43.70;;;;;;5155613;27;20431;-44
2022/02/26 06:13:18;;;;;;;;;;;21.90;43.70;;;;;;5155080;27;19927;-47
2022/02/26 06:15:45;;;;;;;;;;;21.90;43.70;;;;;;5155534;27;19927;-44
2022/02/26 06:18:12;;;;;;;;;;;21.90;43.70;;;;;;5154952;27;19930;-48
2022/02/26 06:20:39;;;;;;;;;;;21.90;43.70;;;;;;5136224;27;19923;-50
2022/02/26 06:23:06;;;;;;;;;;;21.90;43.70;;;;;;5155274;27;19923;-46
2022/02/26 06:25:34;;;;;;;;;;;21.90;43.70;;;;;;5137144;27;19945;-46
2022/02/26 06:28:01;;;;;;;;;;;21.90;43.70;;;;;;5135967;27;19984;-44
2022/02/26 06:30:28;;;;;;;;;;;21.90;43.70;;;;;;5155380;27;19975;-48
2022/02/26 06:32:55;;;;;;;;;;;21.90;43.70;;;;;;5137302;27;19934;-47
2022/02/26 06:35:25;;;;;;;;;;;21.90;43.70;;;;;;5154445;27;19966;-50
2022/02/26 06:37:52;;;;;;;;;;;21.90;43.70;;;;;;5136988;27;20413;-42
2022/02/26 06:40:19;;;;;;;;;;;21.90;43.70;;;;;;5155266;27;20009;-43
2022/02/26 06:42:46;;;;;;;;;;;21.90;43.70;;;;;;5154465;27;19958;-44
2022/02/26 06:45:13;;;;;;;;;;;22.00;43.70;;;;;;5155197;27;19923;-42
2022/02/26 06:47:40;;;;;;;;;;;21.90;43.70;;;;;;5155396;27;20017;-44
2022/02/26 06:50:08;;;;;;;;;;;21.90;43.70;;;;;;5154328;27;19927;-42
2022/02/26 06:52:35;;;;;;;;;;;21.90;43.70;;;;;;5154915;27;20404;-44
2022/02/26 06:55:02;;;;;;;;;;;21.90;44.30;;;;;;5155169;27;19923;-44
2022/02/26 06:57:42;;;;;;;;;;;22.00;43.70;;;;;;5154388;27;19923;-42
2022/02/26 07:00:11;;;;;;;;;;;22.00;43.70;;;;;;5155118;27;19968;-43
2022/02/26 07:02:37;;;;;;;;;;;21.90;43.60;;;;;;5155025;27;20274;-45
2022/02/26 07:05:05;;;;;;;;;;;22.00;43.70;;;;;;5135664;27;19933;-45
2022/02/26 07:07:34;;;;;;;;;;;22.00;43.70;;;;;;5155347;27;19923;-43
2022/02/26 07:10:02;;;;;;;;;;;22.00;43.70;;;;;;5155289;27;19923;-42
2022/02/26 07:12:29;;;;;;;;;;;22.00;43.70;;;;;;5154123;27;19973;-43
2022/02/26 07:14:56;;;;;;;;;;;22.00;43.60;;;;;;5154910;27;19923;-43
2022/02/26 07:17:23;;;;;;;;;;;22.00;43.60;;;;;;5155224;27;19945;-42
2022/02/26 07:19:50;;;;;;;;;;;22.00;43.60;;;;;;5153514;27;20294;-42
2022/02/26 07:22:17;;;;;;;;;;;22.00;43.60;;;;;;5154602;27;19966;-43
2022/02/26 07:24:44;;;;;;;;;;;22.00;43.60;;;;;;5154794;27;19923;-43
2022/02/26 07:27:16;;;;;;;;;;;22.00;43.50;;;;;;5155107;27;19923;-43
2022/02/26 07:29:43;;;;;;;;;;;22.00;43.50;;;;;;5154011;27;20286;-42
2022/02/26 07:32:11;;;;;;;;;;;22.00;43.50;;;;;;5154995;27;19923;-42
2022/02/26 07:34:38;;;;;;;;;;;22.00;43.50;;;;;;5155067;27;20271;-43
2022/02/26 07:37:05;;;;;;;;;;;22.00;43.50;;;;;;5153685;27;19927;-43
2022/02/26 07:39:33;;;;;;;;;;;22.00;43.50;;;;;;5138602;27;20022;-42
2022/02/26 07:42:01;;;;;;;;;;;22.00;43.40;;;;;;5158464;27;19930;-43
2022/02/26 07:44:28;;;;;;;;;;;22.00;43.40;;;;;;5157713;27;19923;-43
2022/02/26 07:46:55;;;;;;;;;;;22.00;43.40;;;;;;5158454;27;19927;-42
2022/02/26 07:49:22;;;;;;;;;;;22.10;43.50;;;;;;5158557;27;19923;-48
2022/02/26 07:51:49;;;;;;;;;;;22.10;43.40;;;;;;5157043;27;19970;-47
2022/02/26 07:54:16;;;;;;;;;;;22.10;43.40;;;;;;5158280;27;19930;-49
2022/02/26 07:56:44;;;;;;;;;;;22.10;43.40;;;;;;5158533;27;20282;-45
2022/02/26 07:59:11;;;;;;;;;;;22.10;43.30;;;;;;5157695;27;19966;-45
2022/02/26 08:01:38;;;;;;;;;;;22.10;43.30;;;;;;5158140;27;19931;-43
2022/02/26 08:04:07;;;;;;;;;;;22.10;43.30;;;;;;5158684;27;19927;-49
2022/02/26 08:06:34;;;;;;;;;;;22.10;43.20;;;;;;5144332;27;19923;-47
2022/02/26 08:09:02;;;;;;;;;;;22.10;43.20;;;;;;5119420;27;19933;-48
2022/02/26 08:11:30;;;;;;;;;;;22.10;43.20;;;;;;5137502;27;19967;-45
2022/02/26 08:13:59;;;;;;;;;;;22.10;43.20;;;;;;5144645;27;19975;-45
2022/02/26 08:16:26;;;;;;;;;;;22.10;43.80;;;;;;5157868;27;20010;-47
2022/02/26 08:18:55;;;;;;;;;;;22.20;43.20;;;;;;5139412;27;20424;-44
2022/02/26 08:21:22;;;;;;;;;;;22.20;43.20;;;;;;5156721;27;19927;-45
2022/02/26 08:23:50;;;;;;;;;;;22.20;43.20;;;;;;5158032;27;19923;-43
2022/02/26 08:26:18;;;;;;;;;;;22.20;43.10;;;;;;5157932;27;19951;-47
2022/02/26 08:28:46;;;;;;;;;;;22.20;43.10;;;;;;5156884;27;19975;-45
2022/02/26 08:31:13;;;;;;;;;;;22.20;43.10;;;;;;5157497;27;19976;-47
2022/02/26 08:33:41;;;;;;;;;;;22.20;43.10;;;;;;5139075;27;19923;-45
2022/02/26 08:36:08;;;;;;;;;;;22.20;43.10;;;;;;5138393;27;19971;-45
2022/02/26 08:38:35;;;;;;;;;;;22.20;43.10;;;;;;5157739;27;20324;-48
2022/02/26 08:41:02;;;;;;;;;;;22.20;43.10;;;;;;5139481;27;19987;-44
2022/02/26 08:43:29;;;;;;;;;;;22.20;43.10;;;;;;5156264;27;19923;-43
2022/02/26 08:45:56;;;;;;;;;;;22.20;43.10;;;;;;5136324;27;19923;-42
2022/02/26 08:48:24;;;;;;;;;;;22.20;43.10;;;;;;5136371;27;19923;-43
2022/02/26 08:50:51;;;;;;;;;;;22.20;43.10;;;;;;5119238;27;19935;-44
2022/02/26 08:53:18;;;;;;;;;;;22.20;43.10;;;;;;5156877;27;19948;-44
2022/02/26 08:55:45;;;;;;;;;;;22.20;43.10;;;;;;5157050;27;20050;-46
2022/02/26 08:58:13;;;;;;;;;;;22.20;43.00;;;;;;5157335;27;20293;-44
2022/02/26 09:00:40;;;;;;;;;;;22.20;43.00;;;;;;5156240;27;19965;-45
2022/02/26 09:03:07;;;;;;;;;;;22.20;43.00;;;;;;5156982;27;20379;-43
2022/02/26 09:05:35;;;;;;;;;;;22.20;43.00;;;;;;5157162;27;19930;-45
2022/02/26 09:08:02;;;;;;;;;;;22.20;43.00;;;;;;5155793;27;19924;-44
2022/02/26 09:10:29;;;;;;;;;;;22.20;43.00;;;;;;5156817;27;19923;-42
2022/02/26 09:12:57;;;;;;;;;;;22.20;43.00;;;;;;5157010;27;19976;-42
2022/02/26 09:15:25;;;;;;;;;;;22.30;43.00;;;;;;5156263;27;19923;-45
2022/02/26 09:17:52;;;;;;;;;;;22.30;43.00;;;;;;5156817;27;19923;-43
2022/02/26 09:20:19;;;;;;;;;;;22.30;43.00;;;;;;5156514;27;19974;-42
2022/02/26 09:22:46;;;;;;;;;;;22.30;42.90;;;;;;5155361;27;19927;-42
2022/02/26 09:25:13;;;;;;;;;;;22.30;42.90;;;;;;5156475;27;19969;-44
2022/02/26 09:27:40;;;;;;;;;;;22.30;42.90;;;;;;5156659;27;19946;-42
2022/02/26 09:30:08;;;;;;;;;;;22.30;42.90;;;;;;5155597;27;19923;-43
2022/02/26 09:32:35;;;;;;;;;;;22.40;42.90;;;;;;5156272;27;19983;-43
2022/02/26 09:35:03;;;;;;;;;;;22.40;42.90;;;;;;5156552;27;20294;-43
2022/02/26 09:37:30;;;;;;;;;;;22.40;42.80;;;;;;5155454;27;20259;-43
2022/02/26 09:40:00;;;;;;;;;;;22.40;42.80;;;;;;5156213;27;19952;-43
2022/02/26 09:42:28;;;;;;;;;;;22.40;42.70;;;;;;5156451;27;19970;-43
2022/02/26 09:44:55;;;;;;;;;;;22.40;42.70;;;;;;5136996;27;20013;-43
2022/02/26 09:47:22;;;;;;;;;;;22.40;42.70;;;;;;5156299;27;19983;-44
2022/02/26 09:49:49;;;;;;;;;;;22.40;42.70;;;;;;5156017;27;20021;-44
2022/02/26 09:52:23;;;;;;;;;;;22.50;42.70;;;;;;5154812;27;20394;-43
2022/02/26 09:54:51;;;;;;;;;;;22.50;42.70;;;;;;5156311;27;19930;-45
2022/02/26 09:57:21;;;;;;;;;;;22.50;42.70;;;;;;5155892;27;20383;-44
2022/02/26 09:59:48;;;;;;;;;;;22.50;42.60;;;;;;5155381;27;19923;-43
2022/02/26 10:02:16;;;;;;;;;;;22.50;42.60;;;;;;5155387;27;19976;-44
2022/02/26 10:04:54;;;;;;;;;;;22.50;43.20;;;;;;5155537;27;19923;-43
2022/02/26 10:07:25;;;;;;;;;;;22.50;42.50;;;;;;5154921;27;19970;-42
2022/02/26 10:09:53;;;;;;;;;;;22.50;42.50;;;;;;5155691;27;19923;-43
2022/02/26 10:12:23;;;;;;;;;;;22.60;42.50;;;;;;5155851;27;20029;-43
2022/02/26 10:14:51;;;;;;;;;;;22.60;42.70;;;;;;5155128;27;19947;-44
2022/02/26 10:17:24;;;;;;;;;;;22.60;42.40;;;;;;5155748;27;20282;-42
2022/02/26 10:20:09;;;;;;;;;;;22.60;42.40;;;;;;5155288;27;19974;-43
2022/02/26 10:22:37;;;;;;;;;;;22.60;42.30;;;;;;5154050;27;20034;-42
2022/02/26 10:25:04;;;;;;;;;;;22.70;42.40;;;;;;5155782;27;20330;-44
2022/02/26 10:27:31;;;;;;;;;;;22.70;42.40;;;;;;5156312;27;20251;-42
2022/02/26 10:29:59;;;;;;;;;;;22.60;42.30;;;;;;5154945;27;20347;-43
2022/02/26 10:32:26;;;;;;;;;;;22.60;42.30;;;;;;5155549;27;19927;-44
2022/02/26 10:34:53;;;;;;;;;;;22.70;42.40;;;;;;5155642;27;19923;-44
2022/02/26 10:37:22;;;;;;;;;;;22.70;42.40;;;;;;5154208;27;19930;-43
2022/02/26 10:39:51;;;;;;;;;;;22.70;42.40;;;;;;5155601;27;20313;-42
2022/02/26 10:42:20;;;;;;;;;;;22.70;42.30;;;;;;5155576;27;19975;-43
2022/02/26 10:45:11;;;;;;;;;;;22.70;42.30;;;;;;5154990;27;19931;-43
2022/02/26 10:47:41;;;;;;;;;;;22.70;42.30;;;;;;5155123;27;20323;-43
2022/02/26 10:50:17;;;;;;;;;;;22.70;42.30;;;;;;5155192;27;20014;-44
2022/02/26 10:52:56;;;;;;;;;;;22.70;42.30;;;;;;5135605;27;19997;-44
2022/02/26 10:55:43;;;;;;;;;;;22.70;42.30;;;;;;5155132;27;19923;-43
2022/02/26 10:58:23;;;;;;;;;;;22.70;42.20;;;;;;5154937;27;20378;-47
2022/02/26 11:00:52;;;;;;;;;;;22.60;42.20;;;;;;5154607;27;20012;-49
2022/02/26 11:03:21;;;;;;;;;;;22.70;42.30;;;;;;5155373;27;20006;-52
2022/02/26 11:05:49;;;;;;;;;;;22.70;42.30;;;;;;5155264;27;19935;-47
2022/02/26 11:08:17;;;;;;;;;;;22.70;42.30;;;;;;5153971;27;19927;-51
2022/02/26 11:10:45;;;;;;;;;;;22.70;42.30;;;;;;5155323;27;19927;-45
2022/02/26 11:13:13;;;;;;;;;;;22.70;42.30;;;;;;5154884;27;19923;-43
2022/02/26 11:15:42;;;;;;;;;;;22.70;42.30;;;;;;5157949;27;19930;-44
2022/02/26 11:18:11;;;;;;;;;;;22.70;42.20;;;;;;5159263;27;19931;-43
2022/02/26 11:20:39;;;;;;;;;;;22.80;42.30;;;;;;5159648;27;19973;-47
2022/02/26 11:23:06;;;;;;;;;;;22.80;42.20;;;;;;5157674;27;19927;-46
2022/02/26 11:25:33;;;;;;;;;;;22.80;42.10;;;;;;5159179;27;19923;-45
2022/02/26 11:28:01;;;;;;;;;;;22.80;42.10;;;;;;5159125;27;19930;-51
2022/02/26 11:30:33;;;;;;;;;;;22.80;42.00;;;;;;5158363;27;19923;-45
2022/02/26 11:33:01;;;;;;;;;;;22.90;42.10;;;;;;5158985;27;19975;-44
2022/02/26 11:35:29;;;;;;;;;;;22.90;42.10;;;;;;5158669;27;20017;-45
2022/02/26 11:38:05;;;;;;;;;;;22.90;42.00;;;;;;5157485;27;19927;-47
2022/02/26 11:40:33;;;;;;;;;;;22.90;41.90;;;;;;5158941;27;19924;-44
2022/02/26 11:43:01;;;;;;;;;;;23.00;41.90;;;;;;5158900;27;19954;-44
2022/02/26 11:45:29;;;;;;;;;;;23.00;42.00;;;;;;5158277;27;19931;-46
2022/02/26 11:48:00;;;;;;;;;;;23.00;41.80;;;;;;5137520;27;19927;-48
2022/02/26 11:50:27;;;;;;;;;;;23.00;41.70;;;;;;5137706;27;19968;-46
2022/02/26 11:52:59;;;;;;;;;;;23.00;41.70;;;;;;5139499;27;19927;-45
2022/02/26 11:55:29;;;;;;;;;;;23.00;41.70;;;;;;5158663;27;19962;-42
2022/02/26 11:57:58;;;;;;;;;;;23.00;41.70;;;;;;5158563;27;20017;-45
2022/02/26 12:00:28;;;;;;;;;;;23.00;41.70;;;;;;5158526;27;19984;-49
2022/02/26 12:03:17;;;;;;;;;;;23.10;41.70;;;;;;5139113;27;19923;-45
2022/02/26 12:05:45;;;;;;;;;;;23.10;41.70;;;;;;5158393;27;19923;-42
2022/02/26 12:08:16;;;;;;;;;;;23.10;41.70;;;;;;5157242;27;20282;-45
2022/02/26 12:10:54;;;;;;;;;;;23.10;41.70;;;;;;5140160;27;20013;-42
2022/02/26 12:13:38;;;;;;;;;;;23.10;41.70;;;;;;5158232;27;19923;-43
2022/02/26 12:16:09;;;;;;;;;;;23.10;41.70;;;;;;5157163;27;19931;-48
2022/02/26 12:18:40;;;;;;;;;;;23.10;41.70;;;;;;5139464;27;19927;-46
2022/02/26 12:21:09;;;;;;;;;;;23.10;41.60;;;;;;5157985;27;19988;-45
2022/02/26 12:23:43;;;;;;;;;;;23.10;41.60;;;;;;5157059;27;20342;-43
2022/02/26 12:26:11;;;;;;;;;;;23.10;41.60;;;;;;5156944;27;20345;-43
2022/02/26 12:28:39;;;;;;;;;;;23.20;41.60;;;;;;5158012;27;19984;-45
2022/02/26 12:31:09;;;;;;;;;;;23.10;41.50;;;;;;5156901;27;19983;-44
2022/02/26 12:33:42;;;;;;;;;;;23.10;41.60;;;;;;5157805;27;19933;-44
2022/02/26 12:36:09;;;;;;;;;;;23.10;41.60;;;;;;5157875;27;20346;-43
2022/02/26 12:38:45;;;;;;;;;;;23.10;41.70;;;;;;5156331;27;20382;-44
2022/02/26 12:41:29;;;;;;;;;;;23.10;41.70;;;;;;5157394;27;19976;-44
2022/02/26 12:43:57;;;;;;;;;;;23.10;41.70;;;;;;5139338;27;19988;-43
2022/02/26 12:46:31;;;;;;;;;;;23.10;41.80;;;;;;5156860;27;19927;-42
2022/02/26 12:49:00;;;;;;;;;;;23.10;41.80;;;;;;5157524;27;19923;-45
2022/02/26 12:51:31;;;;;;;;;;;23.10;41.80;;;;;;5157034;27;19952;-46
2022/02/26 12:53:58;;;;;;;;;;;23.10;41.80;;;;;;5155978;27;19976;-44
2022/02/26 12:56:30;;;;;;;;;;;23.10;41.70;;;;;;5157437;27;19972;-48
2022/02/26 12:59:17;;;;;;;;;;;23.10;41.80;;;;;;5157021;27;19923;-44
2022/02/26 13:01:47;;;;;;;;;;;23.10;41.80;;;;;;5156199;27;19931;-42
2022/02/26 13:04:19;;;;;;;;;;;23.10;41.80;;;;;;5157541;27;20022;-42
2022/02/26 13:06:51;;;;;;;;;;;23.10;41.80;;;;;;5157206;27;19953;-43
2022/02/26 13:09:24;;;;;;;;;;;23.10;41.80;;;;;;5155726;27;20021;-43
2022/02/26 13:11:52;;;;;;;;;;;23.20;41.80;;;;;;5156794;27;19923;-43
2022/02/26 13:14:20;;;;;;;;;;;23.10;41.70;;;;;;5156672;27;19951;-43
2022/02/26 13:16:57;;;;;;;;;;;23.20;41.80;;;;;;5155895;27;19962;-44
2022/02/26 13:19:26;;;;;;;;;;;23.20;41.80;;;;;;5156354;27;19930;-44
2022/02/26 13:21:55;;;;;;;;;;;23.20;42.40;;;;;;5156738;27;20328;-45
2022/02/26 13:24:40;;;;;;;;;;;23.20;41.80;;;;;;5155381;27;19966;-42
2022/02/26 13:27:11;;;;;;;;;;;23.20;41.80;;;;;;5156840;27;19934;-44
2022/02/26 13:29:40;;;;;;;;;;;23.20;41.80;;;;;;5156771;27;19923;-46
2022/02/26 13:32:20;;;;;;;;;;;23.20;41.80;;;;;;5155634;27;19962;-42
2022/02/26 13:34:51;;;;;;;;;;;23.20;41.70;;;;;;5156241;27;20382;-46
2022/02/26 13:37:20;;;;;;;;;;;23.20;41.70;;;;;;5156422;27;20298;-43
2022/02/26 13:39:50;;;;;;;;;;;23.20;41.70;;;;;;5155076;27;20386;-44
2022/02/26 13:42:25;;;;;;;;;;;23.30;41.70;;;;;;5156536;27;19922;-42
2022/02/26 13:44:56;;;;;;;;;;;23.20;41.70;;;;;;5156457;27;20336;-44
2022/02/26 13:47:23;;;;;;;;;;;23.20;41.70;;;;;;5155591;27;19930;-43
2022/02/26 13:49:54;;;;;;;;;;;23.20;41.70;;;;;;5156085;27;19927;-44
2022/02/26 13:52:23;;;;;;;;;;;23.20;41.80;;;;;;5155817;27;20398;-43
2022/02/26 13:54:52;;;;;;;;;;;23.10;41.70;;;;;;5154993;27;19991;-43
2022/02/26 13:57:22;;;;;;;;;;;23.10;41.80;;;;;;5156256;27;19968;-42
2022/02/26 13:59:50;;;;;;;;;;;23.10;41.90;;;;;;5155902;27;19934;-42
2022/02/26 14:02:24;;;;;;;;;;;23.10;42.00;;;;;;5155300;27;19923;-44
2022/02/26 14:04:59;;;;;;;;;;;23.10;42.00;;;;;;5156671;27;19923;-44
2022/02/26 14:07:36;;;;;;;;;;;23.10;42.00;;;;;;5155988;27;19923;-43
2022/02/26 14:10:04;;;;;;;;;;;23.00;42.00;;;;;;5154526;27;20374;-51
2022/02/26 14:12:31;;;;;;;;;;;23.00;42.00;;;;;;5155958;27;19969;-52
2022/02/26 14:15:04;;;;;;;;;;;23.00;42.00;;;;;;5155549;27;19962;-51
2022/02/26 14:17:31;;;;;;;;;;;23.00;42.00;;;;;;5154710;27;19927;-52
2022/02/26 14:20:00;;;;;;;;;;;23.00;42.10;;;;;;5155368;27;19929;-50
2022/02/26 14:22:29;;;;;;;;;;;23.00;42.10;;;;;;5155714;27;20015;-45
2022/02/26 14:25:02;;;;;;;;;;;23.00;42.10;;;;;;5154402;27;19926;-48
2022/02/26 14:27:29;;;;;;;;;;;23.00;42.10;;;;;;5137199;27;19931;-50